ROMMA est une association bénévole à but non lucratif. Votre soutien est indispensable : ADHERER à ROMMA ou FAIRE un DON

Crest - (26, Drôme)

Vallée de la Drôme (315 m)   Longitude: 5°2' E   Latitude: 44°44' N Station partenaire n°62
 

Détail journalier du     <<     >>

Température Precipitation Humidité Pression Vent Dir Rafale Dir. rafale Ensol.
Heure (°C) (mm) (%) (hPa) (km/h) (km/h) (min)
01:00 15.608110217SSO16SSO0
02:00 15.208310217SSO16S0
03:00 15.608110205N13SO0
04:00 14.108710202SSO10SSO0
05:00 13.109010201SSO5SSO0
06:00 12.9092102003S0
07:00 12.9093102100---0
08:00 13.1094102105S0
09:00 15.408710213SSO15N25
10:00 16.208010226SSO18SSO0
11:00 17.2074102210N24NNO0
12:00 18.5070102213N29SSO0
13:00 20.8063102216SSO32SSO53
14:00 22.4057102117SSO35SSO60
15:00 23.8053102119SSO40SSO53
16:00 24.3053102019SSO37NNO59
17:00 23.9055102018SSO40NNO48
18:00 24.2053102018NE37NE47
19:00 23.8054102014SSO35NNE53
20:00 22.7057102113SSO34SSO4
21:00 21.2064102111SSO24NNO2
22:00 20.3069102111SSO27SSO0
23:00 19.7071102110SSO21SSO0
minuit 17.9077102111SSO21SSO0

Graphique du 22-08-2019

 

Serveur OMMA